createdAt,value
2022-12-04T00:01:28.465Z,100871.53
2022-12-04T00:03:58.531Z,100872.22
2022-12-04T00:06:27.485Z,100868.94
2022-12-04T00:08:55.719Z,100867.47
2022-12-04T00:11:27.534Z,100869.88
2022-12-04T00:14:04.654Z,100872.06
2022-12-04T00:16:35.794Z,100864.22
2022-12-04T00:19:04.494Z,100861.47
2022-12-04T00:21:32.910Z,100851.84
2022-12-04T00:24:01.083Z,100854.19
2022-12-04T00:26:31.054Z,100856.84
2022-12-04T00:29:00.328Z,100853.00
2022-12-04T00:31:30.961Z,100853.34
2022-12-04T00:34:00.351Z,100857.25
2022-12-04T00:36:29.527Z,100864.75
2022-12-04T00:38:59.939Z,100849.91
2022-12-04T00:41:31.273Z,100852.38
2022-12-04T00:44:02.416Z,100854.34
2022-12-04T00:46:30.412Z,100859.38
2022-12-04T00:49:01.728Z,100850.50
2022-12-04T00:51:30.395Z,100855.16
2022-12-04T00:53:58.186Z,100848.13
2022-12-04T00:56:28.532Z,100854.41
2022-12-04T00:59:01.192Z,100852.53
2022-12-04T01:01:30.648Z,100857.91
2022-12-04T01:03:58.548Z,100854.53
2022-12-04T01:06:30.702Z,100843.38
2022-12-04T01:09:01.714Z,100849.16
2022-12-04T01:11:30.561Z,100853.19
2022-12-04T01:14:00.644Z,100856.75
2022-12-04T01:16:33.032Z,100844.19
2022-12-04T01:19:01.759Z,100852.84
2022-12-04T01:21:29.502Z,100849.63
2022-12-04T01:23:58.706Z,100852.59
2022-12-04T01:26:27.129Z,100849.03
2022-12-04T01:28:54.874Z,100850.78
2022-12-04T01:31:24.672Z,100853.41
2022-12-04T01:33:53.105Z,100849.75
2022-12-04T01:36:25.412Z,100852.00
2022-12-04T01:38:54.343Z,100850.50
2022-12-04T01:41:26.179Z,100856.16
2022-12-04T01:44:14.114Z,100847.72
2022-12-04T01:46:46.211Z,100847.81
2022-12-04T01:49:19.594Z,100847.13
2022-12-04T01:51:52.941Z,100850.06
2022-12-04T01:54:28.329Z,100844.19
2022-12-04T01:57:04.213Z,100844.19
2022-12-04T01:59:39.922Z,100842.03
2022-12-04T02:02:15.177Z,100838.31
2022-12-04T02:04:44.791Z,100846.88
2022-12-04T02:07:12.819Z,100838.91
2022-12-04T02:09:43.033Z,100847.97
2022-12-04T02:12:22.342Z,100836.84
2022-12-04T02:15:04.874Z,100840.34
2022-12-04T02:17:48.996Z,100839.00
2022-12-04T02:20:32.835Z,100842.22
2022-12-04T02:23:32.201Z,100836.72
2022-12-04T02:26:14.480Z,100846.38
2022-12-04T02:28:51.406Z,100839.72
2022-12-04T02:31:26.164Z,100839.63
2022-12-04T02:34:02.528Z,100834.63
2022-12-04T02:36:36.001Z,100837.75
2022-12-04T02:39:12.579Z,100834.22
2022-12-04T02:41:46.948Z,100832.56
2022-12-04T02:44:26.643Z,100826.34
2022-12-04T02:47:00.931Z,100828.34
2022-12-04T02:49:37.021Z,100817.13
2022-12-04T02:52:11.631Z,100820.28
2022-12-04T02:54:45.763Z,100824.97
2022-12-04T02:57:21.456Z,100821.94
2022-12-04T02:59:53.758Z,100817.81
2022-12-04T03:02:31.194Z,100812.81
2022-12-04T03:05:07.343Z,100814.97
2022-12-04T03:07:44.210Z,100810.44
2022-12-04T03:10:17.374Z,100808.84
2022-12-04T03:12:53.196Z,100809.44
2022-12-04T03:15:27.900Z,100817.91
2022-12-04T03:18:03.379Z,100813.88
2022-12-04T03:20:36.388Z,100826.56
2022-12-04T03:23:11.486Z,100821.88
2022-12-04T03:25:49.746Z,100816.75
2022-12-04T03:28:31.376Z,100813.59
2022-12-04T03:31:09.287Z,100820.88
2022-12-04T03:33:42.965Z,100818.91
2022-12-04T03:36:18.217Z,100819.47
2022-12-04T03:38:55.525Z,100819.44
2022-12-04T03:41:30.562Z,100822.88
2022-12-04T03:44:07.512Z,100822.44
2022-12-04T03:46:48.424Z,100829.66
2022-12-04T03:49:23.270Z,100821.78
2022-12-04T03:51:59.652Z,100826.72
2022-12-04T03:54:35.117Z,100815.69
2022-12-04T03:57:13.635Z,100824.28
2022-12-04T03:59:53.911Z,100828.47
2022-12-04T04:02:32.365Z,100829.19
2022-12-04T04:05:06.038Z,100830.09
2022-12-04T04:07:42.209Z,100831.19
2022-12-04T04:10:17.045Z,100822.44
2022-12-04T04:13:12.524Z,100820.84
2022-12-04T04:16:07.913Z,100820.47
2022-12-04T04:18:57.593Z,100827.84
2022-12-04T04:21:51.774Z,100827.53
2022-12-04T04:24:30.806Z,100823.59
2022-12-04T04:26:59.383Z,100832.47
2022-12-04T04:29:27.598Z,100820.28
2022-12-04T04:32:08.333Z,100821.72
2022-12-04T04:34:51.666Z,100826.53
2022-12-04T04:37:33.911Z,100827.84
2022-12-04T04:40:14.033Z,100826.16
2022-12-04T04:42:51.644Z,100824.59
2022-12-04T04:45:30.070Z,100826.91
2022-12-04T04:48:04.308Z,100823.66
2022-12-04T04:50:35.846Z,100833.53
2022-12-04T04:53:09.639Z,100831.63
2022-12-04T04:55:38.825Z,100833.81
2022-12-04T04:58:09.290Z,100823.59
2022-12-04T05:00:38.914Z,100829.09
2022-12-04T05:03:07.120Z,100830.66
2022-12-04T05:05:36.260Z,100828.47
2022-12-04T05:08:04.251Z,100827.53
2022-12-04T05:10:32.192Z,100832.13
2022-12-04T05:12:59.937Z,100827.94
2022-12-04T05:15:27.746Z,100827.31
2022-12-04T05:17:55.593Z,100830.28
2022-12-04T05:20:23.293Z,100834.13
2022-12-04T05:22:52.377Z,100829.91
2022-12-04T05:25:20.259Z,100836.16
2022-12-04T05:27:47.935Z,100836.38
2022-12-04T05:30:16.568Z,100841.66
2022-12-04T05:32:44.360Z,100834.41
2022-12-04T05:35:12.259Z,100835.63
2022-12-04T05:37:40.611Z,100833.06
2022-12-04T05:40:11.240Z,100825.91
2022-12-04T05:42:38.999Z,100828.34
2022-12-04T05:45:07.987Z,100830.09
2022-12-04T05:47:39.365Z,100823.59
2022-12-04T05:50:10.472Z,100819.00
2022-12-04T05:52:38.940Z,100821.22
2022-12-04T05:55:08.907Z,100817.84
2022-12-04T05:57:36.879Z,100819.84
2022-12-04T06:00:06.661Z,100822.59
2022-12-04T06:02:39.137Z,100819.84
2022-12-04T06:05:07.795Z,100817.53
2022-12-04T06:07:35.978Z,100813.88
2022-12-04T06:10:05.339Z,100819.88
2022-12-04T06:12:34.425Z,100811.00
2022-12-04T06:15:02.200Z,100814.44
2022-12-04T06:17:30.048Z,100808.47
2022-12-04T06:19:58.288Z,100812.78
2022-12-04T06:22:26.471Z,100803.56
2022-12-04T06:24:54.390Z,100807.16
2022-12-04T06:27:29.261Z,100807.47
2022-12-04T06:29:59.079Z,100802.34
2022-12-04T06:32:27.087Z,100802.53
2022-12-04T06:34:55.857Z,100801.66
2022-12-04T06:37:25.606Z,100805.06
2022-12-04T06:39:53.820Z,100803.84
2022-12-04T06:42:21.694Z,100807.03
2022-12-04T06:44:49.779Z,100807.63
2022-12-04T06:47:18.983Z,100809.97
2022-12-04T06:49:51.043Z,100809.78
2022-12-04T06:52:19.135Z,100824.38
2022-12-04T06:54:46.879Z,100817.03
2022-12-04T06:57:14.807Z,100817.69
2022-12-04T06:59:42.602Z,100826.47
2022-12-04T07:02:10.910Z,100821.19
2022-12-04T07:04:40.057Z,100825.72
2022-12-04T07:07:09.872Z,100821.88
2022-12-04T07:09:37.954Z,100829.84
2022-12-04T07:12:06.684Z,100824.50
2022-12-04T07:14:34.407Z,100824.16
2022-12-04T07:17:02.182Z,100827.91
2022-12-04T07:19:30.091Z,100830.47
2022-12-04T07:21:59.255Z,100831.06
2022-12-04T07:24:26.977Z,100832.72
2022-12-04T07:26:55.367Z,100833.53
2022-12-04T07:29:23.121Z,100833.63
2022-12-04T07:31:50.990Z,100834.81
2022-12-04T07:34:18.832Z,100834.00
2022-12-04T07:36:46.566Z,100834.41
2022-12-04T07:39:15.819Z,100835.00
2022-12-04T07:41:43.545Z,100841.31
2022-12-04T07:44:11.272Z,100834.81
2022-12-04T07:46:39.220Z,100840.13
2022-12-04T07:49:06.932Z,100841.81
2022-12-04T07:51:35.198Z,100835.81
2022-12-04T07:54:04.251Z,100830.50
2022-12-04T07:56:34.464Z,100830.84
2022-12-04T07:59:02.409Z,100831.19
2022-12-04T08:01:31.135Z,100833.44
2022-12-04T08:04:00.673Z,100832.66
2022-12-04T08:06:32.263Z,100831.91
2022-12-04T08:09:03.527Z,100832.16
2022-12-04T08:11:35.675Z,100832.66
2022-12-04T08:14:05.895Z,100832.78
2022-12-04T08:16:34.043Z,100836.41
2022-12-04T08:19:03.171Z,100840.50
2022-12-04T08:21:32.784Z,100836.13
2022-12-04T08:24:01.833Z,100833.63
2022-12-04T08:26:31.364Z,100839.16
2022-12-04T08:29:01.674Z,100832.88
2022-12-04T08:31:34.363Z,100837.50
2022-12-04T08:34:05.758Z,100841.53
2022-12-04T08:36:34.391Z,100834.38
2022-12-04T08:39:02.589Z,100830.63
2022-12-04T08:41:30.481Z,100836.50
2022-12-04T08:44:00.026Z,100837.44
2022-12-04T08:46:29.030Z,100839.00
2022-12-04T08:48:57.706Z,100836.81
2022-12-04T08:51:29.140Z,100836.34
2022-12-04T08:54:00.539Z,100838.38
2022-12-04T08:56:30.874Z,100839.28
2022-12-04T08:59:01.593Z,100839.75
2022-12-04T09:01:30.344Z,100838.59
2022-12-04T09:03:58.920Z,100845.38
2022-12-04T09:06:26.866Z,100849.00
2022-12-04T09:08:56.395Z,100850.31
2022-12-04T09:11:27.937Z,100850.56
2022-12-04T09:13:55.946Z,100844.00
2022-12-04T09:16:26.536Z,100843.69
2022-12-04T09:18:55.703Z,100845.19
2022-12-04T09:21:25.519Z,100846.25
2022-12-04T09:23:53.385Z,100848.22
2022-12-04T09:26:25.502Z,100843.88
2022-12-04T09:28:55.402Z,100850.19
2022-12-04T09:31:26.193Z,100852.28
2022-12-04T09:33:54.860Z,100846.47
2022-12-04T09:36:22.575Z,100851.38
2022-12-04T09:38:53.039Z,100851.00
2022-12-04T09:41:41.534Z,100849.41
2022-12-04T09:44:20.007Z,100856.91
2022-12-04T09:46:53.465Z,100856.72
2022-12-04T09:49:28.838Z,100848.00
2022-12-04T09:52:02.700Z,100850.00
2022-12-04T09:54:39.167Z,100846.44
2022-12-04T09:57:20.778Z,100847.75
2022-12-04T09:59:50.912Z,100863.56
2022-12-04T10:02:35.747Z,100857.09
2022-12-04T10:05:05.501Z,100853.06
2022-12-04T10:07:52.944Z,100845.28
2022-12-04T10:10:35.575Z,100850.59
2022-12-04T10:13:21.283Z,100845.25
2022-12-04T10:15:58.735Z,100847.94
2022-12-04T10:18:48.755Z,100842.31
2022-12-04T10:21:34.568Z,100837.41
2022-12-04T10:24:18.051Z,100827.72
2022-12-04T10:26:48.585Z,100832.63
2022-12-04T10:29:22.227Z,100835.63
2022-12-04T10:31:55.623Z,100828.88
2022-12-04T10:34:28.816Z,100830.28
2022-12-04T10:37:04.553Z,100830.41
2022-12-04T10:39:42.264Z,100837.38
2022-12-04T10:42:25.266Z,100833.09
2022-12-04T10:44:53.830Z,100830.78
2022-12-04T10:47:23.989Z,100830.91
2022-12-04T10:50:02.097Z,100832.25
2022-12-04T10:52:29.885Z,100822.41
2022-12-04T10:54:59.917Z,100826.34
2022-12-04T10:57:40.471Z,100817.59
2022-12-04T11:00:26.815Z,100823.47
2022-12-04T11:02:57.496Z,100825.75
2022-12-04T11:05:32.450Z,100822.78
2022-12-04T11:08:05.055Z,100821.34
2022-12-04T11:10:38.336Z,100832.13
2022-12-04T11:13:15.202Z,100834.25
2022-12-04T11:15:46.623Z,100828.34
2022-12-04T11:18:19.027Z,100833.00
2022-12-04T11:20:54.379Z,100815.34
2022-12-04T11:23:23.184Z,100810.09
2022-12-04T11:25:59.376Z,100814.50
2022-12-04T11:28:41.494Z,100805.84
2022-12-04T11:31:18.270Z,100803.50
2022-12-04T11:33:52.011Z,100804.50
2022-12-04T11:36:26.585Z,100796.63
2022-12-04T11:39:07.251Z,100796.16
2022-12-04T11:41:35.180Z,100785.75
2022-12-04T11:44:06.677Z,100791.81
2022-12-04T11:46:34.899Z,100780.09
2022-12-04T11:49:03.774Z,100775.09
2022-12-04T11:51:50.208Z,100768.56
2022-12-04T11:54:29.952Z,100774.09
2022-12-04T11:57:16.254Z,100761.41
2022-12-04T11:59:57.499Z,100776.78
2022-12-04T12:02:59.324Z,100754.75
2022-12-04T12:06:02.211Z,100755.41
2022-12-04T12:08:56.561Z,100744.97
2022-12-04T12:11:34.461Z,100744.72
2022-12-04T12:14:14.483Z,100750.47
2022-12-04T12:17:03.193Z,100746.25
2022-12-04T12:19:54.868Z,100751.06
2022-12-04T12:22:43.189Z,100755.97
2022-12-04T12:25:21.488Z,100761.25
2022-12-04T12:28:15.988Z,100760.31
2022-12-04T12:31:12.713Z,100762.47
2022-12-04T12:33:46.229Z,100751.72
2022-12-04T12:36:16.038Z,100749.44
2022-12-04T12:38:50.183Z,100749.63
2022-12-04T12:41:27.034Z,100747.13
2022-12-04T12:44:01.237Z,100742.72
2022-12-04T12:46:36.964Z,100743.06
2022-12-04T12:49:17.463Z,100748.69
2022-12-04T12:51:52.990Z,100728.00
2022-12-04T12:54:36.609Z,100732.59
2022-12-04T12:57:13.756Z,100736.66
2022-12-04T12:59:50.035Z,100740.66
2022-12-04T13:02:28.568Z,100735.13
2022-12-04T13:05:04.305Z,100743.69
2022-12-04T13:07:45.739Z,100732.38
2022-12-04T13:10:19.200Z,100729.75
2022-12-04T13:12:57.894Z,100735.31
2022-12-04T13:15:36.522Z,100724.97
2022-12-04T13:18:08.852Z,100718.47
2022-12-04T13:20:52.827Z,100716.66
2022-12-04T13:23:40.855Z,100715.56
2022-12-04T13:26:24.546Z,100703.97
2022-12-04T13:29:09.153Z,100703.72
2022-12-04T13:31:53.531Z,100705.22
2022-12-04T13:34:48.918Z,100699.81
2022-12-04T13:37:35.623Z,100711.78
2022-12-04T13:40:33.671Z,100697.06
2022-12-04T13:43:20.559Z,100704.75
2022-12-04T13:45:52.871Z,100695.31
2022-12-04T13:48:36.412Z,100705.34
2022-12-04T13:51:22.372Z,100697.50
2022-12-04T13:54:22.765Z,100701.13
2022-12-04T13:56:53.628Z,100700.41
2022-12-04T13:59:37.864Z,100710.47
2022-12-04T14:02:28.990Z,100715.78
2022-12-04T14:05:02.437Z,100708.69
2022-12-04T14:07:35.017Z,100711.53
2022-12-04T14:10:23.048Z,100713.75
2022-12-04T14:13:03.156Z,100723.81
2022-12-04T14:15:34.719Z,100723.88
2022-12-04T14:18:20.823Z,100716.94
2022-12-04T14:21:00.439Z,100725.13
2022-12-04T14:23:36.853Z,100731.78
2022-12-04T14:26:05.699Z,100729.78
2022-12-04T14:28:42.648Z,100736.97
2022-12-04T14:31:27.985Z,100744.38
2022-12-04T14:34:02.769Z,100748.50
2022-12-04T14:36:40.303Z,100747.31
2022-12-04T14:39:20.314Z,100754.97
2022-12-04T14:41:48.681Z,100746.72
2022-12-04T14:44:28.414Z,100753.66
2022-12-04T14:47:13.538Z,100752.50
2022-12-04T14:50:04.507Z,100759.56
2022-12-04T14:52:40.635Z,100758.91
2022-12-04T14:55:25.952Z,100761.44
2022-12-04T14:57:59.499Z,100755.03
2022-12-04T15:00:28.879Z,100765.31
2022-12-04T15:03:00.762Z,100763.38
2022-12-04T15:05:32.414Z,100760.28
2022-12-04T15:08:05.052Z,100766.63
2022-12-04T15:10:54.114Z,100769.28
2022-12-04T15:13:27.584Z,100764.47
2022-12-04T15:15:56.789Z,100758.47
2022-12-04T15:18:24.997Z,100765.41
2022-12-04T15:20:59.908Z,100754.66
2022-12-04T15:23:34.664Z,100746.66
2022-12-04T15:26:07.607Z,100752.50
2022-12-04T15:28:43.215Z,100749.94
2022-12-04T15:31:18.821Z,100747.22
2022-12-04T15:33:51.194Z,100751.03
2022-12-04T15:36:44.514Z,100754.47
2022-12-04T15:39:17.976Z,100755.06
2022-12-04T15:41:46.803Z,100751.56
2022-12-04T15:44:24.896Z,100740.88
2022-12-04T15:46:56.910Z,100742.84
2022-12-04T15:49:27.982Z,100748.41
2022-12-04T15:52:13.798Z,100752.72
2022-12-04T15:54:46.126Z,100755.69
2022-12-04T15:57:24.339Z,100752.13
2022-12-04T15:59:54.897Z,100748.53
2022-12-04T16:02:29.168Z,100750.38
2022-12-04T16:04:57.587Z,100752.94
2022-12-04T16:07:29.444Z,100750.13
2022-12-04T16:10:04.019Z,100742.56
2022-12-04T16:12:33.151Z,100743.13
2022-12-04T16:15:00.905Z,100740.56
2022-12-04T16:17:32.106Z,100735.44
2022-12-04T16:20:03.973Z,100739.38
2022-12-04T16:22:33.194Z,100744.31
2022-12-04T16:25:00.964Z,100737.63
2022-12-04T16:27:28.767Z,100743.75
2022-12-04T16:29:56.525Z,100748.31
2022-12-04T16:32:32.819Z,100746.72
2022-12-04T16:35:01.997Z,100754.19
2022-12-04T16:37:31.673Z,100756.34
2022-12-04T16:40:06.306Z,100756.25
2022-12-04T16:42:34.954Z,100759.47
2022-12-04T16:45:05.924Z,100748.97
2022-12-04T16:47:33.855Z,100760.84
2022-12-04T16:50:01.669Z,100761.44
2022-12-04T16:52:29.535Z,100755.13
2022-12-04T16:55:01.663Z,100759.84
2022-12-04T16:57:34.024Z,100763.03
2022-12-04T17:00:02.093Z,100761.81
2022-12-04T17:02:30.710Z,100758.09
2022-12-04T17:04:58.578Z,100761.63
2022-12-04T17:07:26.507Z,100778.75
2022-12-04T17:09:54.370Z,100775.44
2022-12-04T17:12:22.224Z,100778.94
2022-12-04T17:14:51.311Z,100777.41
2022-12-04T17:17:19.098Z,100773.69
2022-12-04T17:19:46.866Z,100774.66
2022-12-04T17:22:14.656Z,100777.22
2022-12-04T17:24:49.122Z,100789.22
2022-12-04T17:27:21.243Z,100781.13
2022-12-04T17:29:50.577Z,100785.25
2022-12-04T17:32:18.610Z,100795.09
2022-12-04T17:34:46.577Z,100792.53
2022-12-04T17:37:14.449Z,100798.03
2022-12-04T17:39:42.199Z,100797.25
2022-12-04T17:42:10.258Z,100800.41
2022-12-04T17:44:38.135Z,100807.69
2022-12-04T17:47:07.377Z,100808.88
2022-12-04T17:49:35.295Z,100801.38
2022-12-04T17:52:03.761Z,100797.25
2022-12-04T17:54:31.846Z,100799.72
2022-12-04T17:56:59.748Z,100794.09
2022-12-04T17:59:28.486Z,100801.19
2022-12-04T18:01:56.315Z,100798.47
2022-12-04T18:04:25.563Z,100804.75
2022-12-04T18:06:53.327Z,100801.56
2022-12-04T18:09:21.116Z,100803.56
2022-12-04T18:11:49.158Z,100800.59
2022-12-04T18:14:21.930Z,100798.16
2022-12-04T18:16:53.850Z,100793.59
2022-12-04T18:19:25.305Z,100805.38
2022-12-04T18:21:54.196Z,100800.16
2022-12-04T18:24:24.452Z,100799.00
2022-12-04T18:26:52.744Z,100794.06
2022-12-04T18:29:23.834Z,100796.06
2022-12-04T18:31:52.540Z,100788.94
2022-12-04T18:34:21.609Z,100786.28
2022-12-04T18:36:50.689Z,100785.22
2022-12-04T18:39:21.732Z,100783.03
2022-12-04T18:41:49.539Z,100783.03
2022-12-04T18:44:17.899Z,100785.41
2022-12-04T18:46:45.732Z,100790.34
2022-12-04T18:49:13.937Z,100783.16
2022-12-04T18:51:48.942Z,100778.94
2022-12-04T18:54:23.541Z,100783.03
2022-12-04T18:56:51.921Z,100775.13
2022-12-04T18:59:22.583Z,100779.19
2022-12-04T19:01:51.188Z,100784.16
2022-12-04T19:04:22.027Z,100781.81
2022-12-04T19:06:54.037Z,100787.22
2022-12-04T19:12:15.468Z,100786.13
2022-12-04T19:14:43.177Z,100784.16
2022-12-04T19:17:11.538Z,100778.69
2022-12-04T19:19:39.223Z,100776.78
2022-12-04T19:22:07.056Z,100773.59
2022-12-04T19:24:36.156Z,100770.34
2022-12-04T19:27:10.904Z,100777.28
2022-12-04T19:29:39.737Z,100772.72
2022-12-04T19:32:08.889Z,100765.03
2022-12-04T19:34:37.195Z,100765.91
2022-12-04T19:37:05.017Z,100764.44
2022-12-04T19:39:33.026Z,100757.00
2022-12-04T19:42:02.076Z,100755.97
2022-12-04T19:47:18.588Z,100760.91
2022-12-04T19:49:46.867Z,100758.94
2022-12-04T19:52:14.930Z,100751.56
2022-12-04T19:54:42.779Z,100757.13
2022-12-04T19:57:12.784Z,100756.25
2022-12-04T19:59:45.938Z,100763.47
2022-12-04T20:02:15.368Z,100761.06
2022-12-04T20:04:43.513Z,100763.72
2022-12-04T20:07:11.417Z,100764.97
2022-12-04T20:09:39.186Z,100767.78
2022-12-04T20:12:07.578Z,100767.59
2022-12-04T20:14:36.747Z,100766.19
2022-12-04T20:17:05.121Z,100771.31
2022-12-04T20:19:33.017Z,100759.31
2022-12-04T20:22:00.872Z,100757.34
2022-12-04T20:24:28.634Z,100765.34
2022-12-04T20:26:56.494Z,100767.13
2022-12-04T20:29:24.299Z,100761.22
2022-12-04T20:31:53.402Z,100762.88
2022-12-04T20:34:21.625Z,100760.69
2022-12-04T20:36:49.660Z,100758.28
2022-12-04T20:39:19.689Z,100758.41
2022-12-04T20:41:47.818Z,100760.22
2022-12-04T20:44:19.316Z,100761.97
2022-12-04T20:46:48.292Z,100757.59
2022-12-04T20:49:22.501Z,100758.47
2022-12-04T20:51:52.103Z,100756.72
2022-12-04T20:54:22.618Z,100757.34
2022-12-04T20:56:53.252Z,100758.41
2022-12-04T20:59:23.972Z,100756.97
2022-12-04T21:01:52.788Z,100762.09
2022-12-04T21:04:22.886Z,100763.53
2022-12-04T21:06:50.931Z,100769.75
2022-12-04T21:09:21.877Z,100764.22
2022-12-04T21:11:52.466Z,100767.66
2022-12-04T21:14:41.186Z,100757.41
2022-12-04T21:17:18.177Z,100758.72
2022-12-04T21:19:49.635Z,100760.56
2022-12-04T21:22:19.526Z,100766.44
2022-12-04T21:24:47.407Z,100754.41
2022-12-04T21:27:20.728Z,100754.78
2022-12-04T21:29:49.993Z,100753.00
2022-12-04T21:32:19.502Z,100748.56
2022-12-04T21:34:49.136Z,100752.47
2022-12-04T21:37:16.865Z,100745.41
2022-12-04T21:39:44.776Z,100746.44
2022-12-04T21:42:31.216Z,100747.88
2022-12-04T21:45:01.237Z,100756.00
2022-12-04T21:47:30.363Z,100742.75
2022-12-04T21:49:59.958Z,100749.44
2022-12-04T21:52:28.031Z,100744.53
2022-12-04T21:54:56.364Z,100738.34
2022-12-04T21:57:24.426Z,100744.72
2022-12-04T21:59:52.609Z,100741.16
2022-12-04T22:02:21.076Z,100747.63
2022-12-04T22:04:49.178Z,100744.34
2022-12-04T22:07:18.218Z,100743.66
2022-12-04T22:09:45.968Z,100736.72
2022-12-04T22:12:41.090Z,100739.31
2022-12-04T22:15:01.752Z,100744.06
2022-12-04T22:17:29.855Z,100734.81
2022-12-04T22:19:57.806Z,100742.38
2022-12-04T22:22:27.034Z,100742.22
2022-12-04T22:24:54.911Z,100734.81
2022-12-04T22:27:22.692Z,100735.69
2022-12-04T22:29:51.228Z,100742.91
2022-12-04T22:32:20.198Z,100744.78
2022-12-04T22:34:49.036Z,100751.50
2022-12-04T22:37:17.219Z,100746.97
2022-12-04T22:39:46.357Z,100754.88
2022-12-04T22:42:14.068Z,100753.56
2022-12-04T22:44:41.876Z,100760.94
2022-12-04T22:47:09.745Z,100756.19
2022-12-04T22:49:37.648Z,100756.00
2022-12-04T22:52:05.435Z,100757.16
2022-12-04T22:54:33.513Z,100752.41
2022-12-04T22:57:02.576Z,100758.94
2022-12-04T22:59:30.604Z,100756.53
2022-12-04T23:02:00.130Z,100751.59
2022-12-04T23:04:29.289Z,100756.81
2022-12-04T23:06:57.074Z,100748.94
2022-12-04T23:09:26.079Z,100766.25
2022-12-04T23:11:55.745Z,100763.50
2022-12-04T23:14:26.919Z,100761.22
2022-12-04T23:16:55.366Z,100761.56
2022-12-04T23:19:23.737Z,100769.63
2022-12-04T23:21:56.903Z,100765.00
2022-12-04T23:24:25.410Z,100768.03
2022-12-04T23:26:53.228Z,100763.59
2022-12-04T23:29:51.372Z,100761.84
2022-12-04T23:32:10.071Z,100767.13
2022-12-04T23:34:38.846Z,100767.31
2022-12-04T23:37:06.613Z,100756.53
2022-12-04T23:39:34.402Z,100762.81
2022-12-04T23:42:02.098Z,100763.75
2022-12-04T23:44:30.032Z,100752.53
2022-12-04T23:46:57.811Z,100758.53
2022-12-04T23:49:27.413Z,100757.56
2022-12-04T23:51:55.321Z,100756.63
2022-12-04T23:54:23.115Z,100763.94
2022-12-04T23:56:50.792Z,100752.28
2022-12-04T23:59:18.516Z,100754.50
